首页
METAR-TAF:

METAR-TAF

机场 :

波西尔城, 路易斯安那州, 美国

纬度: 32-30N, 经度: 093-40W, 海拔: 51米

当前天气观测

该预报发布于1小时和0分钟前的05:56 UTC
静风
温度 8°C
湿度 76%
气压 1021 hPa
能見度: 16.1公里
天空无云

METAR: KBAD 240556Z AUTO 00000KT 10SM CLR 08/04 A3014 RMK AO2 SLP209 T00830039 10127 20079 401780067 57006

时间: 00:56 (06:56 UTC)

预报

该预报发布于4小时和56分钟前的02:00 UTC
预报有效从24日的 02点(UTC)到 25日的 08点(UTC)
风速8节,风向东转东南
能见度10公里或以上
散云层高于25000英尺
成为
从 24日的 14点(UTC)到 24日的 15点(UTC)
风速10节,风向东南
能见度10公里或以上
散云层高于1500英尺
成为
从 24日的 17点(UTC)到 24日的 18点(UTC)
风速12节,风向南转南东,有时为18节阵风
能见度10公里或以上
多云层高于2000英尺
阴天层高于5000英尺
成为
从 24日的 21点(UTC)到 24日的 22点(UTC)
风速14节,风向,有时为22节阵风
能见度10公里或以上
阴天层高于2500英尺
成为
从 25日的 02点(UTC)到 25日的 03点(UTC)
风速18节,风向南转南东,有时为25节阵风
能见度10公里或以上
阴天层高于2500英尺
附近有雷暴

TAF: KBAD 240200Z 2402/2508 12008KT 9999 SCT250 QNH3011INS BECMG 2414/2415 14010KT 9999 SCT015 QNH3002INS BECMG 2417/2418 16012G18KT 9999 BKN020 OVC050 QNH2992INS BECMG 2421/2422 17014G22KT 9999 OVC025 QNH2992INS BECMG 2502/2503 15018G25KT 9999 VCTS OVC025 QNH2992INS TX18/2421Z TN05/2412Z

超过4000个机场的气象观测和天气预报(METAR&TAF报告)。

可查询的气象台以黄色和红色小点在地图上表示。

将鼠标移到小点上方,可查看气象台名称。

然后点击查看天气观测和预报。

如需切换地图:点击带黑十字的绿色按钮放大地图;点击带横线的绿色按钮缩小地图;或者点击绿色箭头查看邻近地区的地图。


METAR-TAF: